sensor_id;sensor_type;location;lat;lon;timestamp;P1;durP1;ratioP1;P2;durP2;ratioP2
15814;SDS011;8008;50.024;8.172;2022-11-15T04:02:14;10.25;;;7.50;;
15814;SDS011;8008;50.024;8.172;2022-11-15T04:05:00;11.80;;;7.47;;
15814;SDS011;8008;50.024;8.172;2022-11-15T04:07:47;10.45;;;7.63;;
15814;SDS011;8008;50.024;8.172;2022-11-15T04:10:34;14.27;;;8.07;;
15814;SDS011;8008;50.024;8.172;2022-11-15T04:16:06;10.98;;;7.90;;
15814;SDS011;8008;50.024;8.172;2022-11-15T04:18:54;11.05;;;7.50;;
15814;SDS011;8008;50.024;8.172;2022-11-15T04:21:55;10.43;;;7.63;;
15814;SDS011;8008;50.024;8.172;2022-11-15T04:24:59;11.45;;;7.68;;
15814;SDS011;8008;50.024;8.172;2022-11-15T04:27:45;11.25;;;7.65;;
15814;SDS011;8008;50.024;8.172;2022-11-15T04:30:31;12.73;;;7.80;;
15814;SDS011;8008;50.024;8.172;2022-11-15T04:33:18;12.05;;;7.85;;
15814;SDS011;8008;50.024;8.172;2022-11-15T04:36:06;9.90;;;7.53;;
15814;SDS011;8008;50.024;8.172;2022-11-15T04:39:10;10.27;;;7.13;;
15814;SDS011;8008;50.024;8.172;2022-11-15T04:41:57;9.52;;;7.15;;
15814;SDS011;8008;50.024;8.172;2022-11-15T04:44:43;11.55;;;7.53;;
15814;SDS011;8008;50.024;8.172;2022-11-15T04:47:29;10.48;;;7.90;;
15814;SDS011;8008;50.024;8.172;2022-11-15T04:50:16;11.50;;;7.53;;
15814;SDS011;8008;50.024;8.172;2022-11-15T04:53:04;13.00;;;8.30;;
15814;SDS011;8008;50.024;8.172;2022-11-15T04:55:51;13.23;;;8.00;;
15814;SDS011;8008;50.024;8.172;2022-11-15T04:58:37;12.00;;;7.88;;
15814;SDS011;8008;50.024;8.172;2022-11-15T05:01:23;10.60;;;8.00;;
15814;SDS011;8008;50.024;8.172;2022-11-15T05:04:10;10.32;;;6.88;;
15814;SDS011;8008;50.024;8.172;2022-11-15T05:07:04;10.00;;;7.47;;
15814;SDS011;8008;50.024;8.172;2022-11-15T05:09:52;16.48;;;7.40;;
15814;SDS011;8008;50.024;8.172;2022-11-15T05:12:39;11.25;;;7.45;;
15814;SDS011;8008;50.024;8.172;2022-11-15T05:15:25;11.32;;;7.35;;
15814;SDS011;8008;50.024;8.172;2022-11-15T05:18:11;10.15;;;6.60;;
15814;SDS011;8008;50.024;8.172;2022-11-15T05:21:03;10.63;;;7.47;;
15814;SDS011;8008;50.024;8.172;2022-11-15T05:23:50;9.60;;;7.15;;
15814;SDS011;8008;50.024;8.172;2022-11-15T05:26:38;9.40;;;6.80;;
15814;SDS011;8008;50.024;8.172;2022-11-15T05:29:24;9.30;;;7.10;;
15814;SDS011;8008;50.024;8.172;2022-11-15T05:32:11;9.20;;;7.25;;
15814;SDS011;8008;50.024;8.172;2022-11-15T05:34:58;9.45;;;7.10;;
15814;SDS011;8008;50.024;8.172;2022-11-15T05:37:45;10.07;;;7.18;;
15814;SDS011;8008;50.024;8.172;2022-11-15T05:40:31;11.27;;;7.60;;
15814;SDS011;8008;50.024;8.172;2022-11-15T05:43:21;12.88;;;7.65;;
15814;SDS011;8008;50.024;8.172;2022-11-15T05:46:08;9.27;;;6.97;;
15814;SDS011;8008;50.024;8.172;2022-11-15T05:48:55;11.68;;;8.15;;
15814;SDS011;8008;50.024;8.172;2022-11-15T05:51:42;10.43;;;7.63;;
15814;SDS011;8008;50.024;8.172;2022-11-15T05:54:32;11.95;;;8.02;;
15814;SDS011;8008;50.024;8.172;2022-11-15T05:57:20;9.98;;;7.57;;
15814;SDS011;8008;50.024;8.172;2022-11-15T06:00:09;11.60;;;7.47;;
15814;SDS011;8008;50.024;8.172;2022-11-15T06:02:56;11.63;;;7.82;;
15814;SDS011;8008;50.024;8.172;2022-11-15T06:05:43;10.65;;;7.93;;
15814;SDS011;8008;50.024;8.172;2022-11-15T06:08:29;11.52;;;7.80;;
15814;SDS011;8008;50.024;8.172;2022-11-15T06:11:15;10.90;;;7.57;;
15814;SDS011;8008;50.024;8.172;2022-11-15T06:14:02;11.30;;;7.80;;
15814;SDS011;8008;50.024;8.172;2022-11-15T06:16:50;10.95;;;7.63;;
15814;SDS011;8008;50.024;8.172;2022-11-15T06:19:36;9.82;;;6.82;;
15814;SDS011;8008;50.024;8.172;2022-11-15T06:22:23;8.10;;;6.65;;
15814;SDS011;8008;50.024;8.172;2022-11-15T06:25:09;9.77;;;7.40;;
15814;SDS011;8008;50.024;8.172;2022-11-15T06:27:57;11.68;;;7.57;;
15814;SDS011;8008;50.024;8.172;2022-11-15T06:30:44;10.52;;;7.53;;
15814;SDS011;8008;50.024;8.172;2022-11-15T06:33:38;12.45;;;8.10;;
15814;SDS011;8008;50.024;8.172;2022-11-15T06:36:25;11.02;;;7.78;;
15814;SDS011;8008;50.024;8.172;2022-11-15T06:39:11;10.90;;;7.93;;
15814;SDS011;8008;50.024;8.172;2022-11-15T06:41:57;12.80;;;7.90;;
15814;SDS011;8008;50.024;8.172;2022-11-15T06:44:44;11.45;;;8.02;;
15814;SDS011;8008;50.024;8.172;2022-11-15T06:47:30;15.32;;;10.40;;
15814;SDS011;8008;50.024;8.172;2022-11-15T06:50:18;15.07;;;10.15;;
15814;SDS011;8008;50.024;8.172;2022-11-15T06:53:05;14.05;;;9.07;;
15814;SDS011;8008;50.024;8.172;2022-11-15T06:55:51;13.35;;;8.65;;
15814;SDS011;8008;50.024;8.172;2022-11-15T06:58:39;15.13;;;9.23;;
15814;SDS011;8008;50.024;8.172;2022-11-15T07:01:26;12.45;;;8.93;;
15814;SDS011;8008;50.024;8.172;2022-11-15T07:04:12;11.65;;;9.07;;
15814;SDS011;8008;50.024;8.172;2022-11-15T07:07:00;12.45;;;8.75;;
15814;SDS011;8008;50.024;8.172;2022-11-15T07:09:46;15.05;;;9.10;;
15814;SDS011;8008;50.024;8.172;2022-11-15T07:12:33;12.48;;;8.77;;
15814;SDS011;8008;50.024;8.172;2022-11-15T07:15:22;12.93;;;9.02;;
15814;SDS011;8008;50.024;8.172;2022-11-15T07:18:10;13.85;;;8.73;;
15814;SDS011;8008;50.024;8.172;2022-11-15T07:20:59;11.85;;;7.93;;
15814;SDS011;8008;50.024;8.172;2022-11-15T07:23:48;13.57;;;8.18;;
15814;SDS011;8008;50.024;8.172;2022-11-15T07:26:35;12.18;;;8.32;;
15814;SDS011;8008;50.024;8.172;2022-11-15T07:29:22;14.05;;;8.10;;
15814;SDS011;8008;50.024;8.172;2022-11-15T07:32:10;10.52;;;7.50;;
15814;SDS011;8008;50.024;8.172;2022-11-15T07:34:57;10.70;;;7.65;;
15814;SDS011;8008;50.024;8.172;2022-11-15T07:37:43;12.20;;;7.80;;
15814;SDS011;8008;50.024;8.172;2022-11-15T07:40:31;9.95;;;7.70;;
15814;SDS011;8008;50.024;8.172;2022-11-15T07:43:18;11.70;;;8.07;;
15814;SDS011;8008;50.024;8.172;2022-11-15T07:46:05;11.13;;;7.30;;
15814;SDS011;8008;50.024;8.172;2022-11-15T07:48:54;11.07;;;7.75;;
15814;SDS011;8008;50.024;8.172;2022-11-15T07:51:40;12.25;;;9.07;;
15814;SDS011;8008;50.024;8.172;2022-11-15T07:54:27;11.77;;;9.40;;
15814;SDS011;8008;50.024;8.172;2022-11-15T07:57:15;14.35;;;9.98;;
15814;SDS011;8008;50.024;8.172;2022-11-15T08:00:01;14.10;;;8.57;;
15814;SDS011;8008;50.024;8.172;2022-11-15T08:02:48;12.32;;;8.45;;
15814;SDS011;8008;50.024;8.172;2022-11-15T08:05:36;11.90;;;7.85;;
15814;SDS011;8008;50.024;8.172;2022-11-15T08:08:23;12.48;;;7.68;;
15814;SDS011;8008;50.024;8.172;2022-11-15T08:11:09;11.82;;;7.55;;
15814;SDS011;8008;50.024;8.172;2022-11-15T08:13:57;12.48;;;7.63;;
15814;SDS011;8008;50.024;8.172;2022-11-15T08:16:45;11.50;;;7.97;;
15814;SDS011;8008;50.024;8.172;2022-11-15T08:19:31;11.68;;;7.45;;
15814;SDS011;8008;50.024;8.172;2022-11-15T08:22:18;10.75;;;7.35;;
15814;SDS011;8008;50.024;8.172;2022-11-15T08:25:05;12.70;;;7.82;;
15814;SDS011;8008;50.024;8.172;2022-11-15T08:27:52;10.23;;;7.10;;
15814;SDS011;8008;50.024;8.172;2022-11-15T08:30:41;11.23;;;8.18;;
15814;SDS011;8008;50.024;8.172;2022-11-15T08:33:30;15.27;;;8.38;;
15814;SDS011;8008;50.024;8.172;2022-11-15T08:36:18;11.98;;;8.38;;
15814;SDS011;8008;50.024;8.172;2022-11-15T08:39:05;9.95;;;7.68;;
15814;SDS011;8008;50.024;8.172;2022-11-15T08:41:51;12.82;;;7.70;;
15814;SDS011;8008;50.024;8.172;2022-11-15T08:44:38;10.88;;;7.90;;
15814;SDS011;8008;50.024;8.172;2022-11-15T08:47:26;10.77;;;7.68;;
15814;SDS011;8008;50.024;8.172;2022-11-15T08:50:12;11.80;;;7.93;;
15814;SDS011;8008;50.024;8.172;2022-11-15T08:53:03;13.23;;;7.78;;
15814;SDS011;8008;50.024;8.172;2022-11-15T08:55:51;10.82;;;7.93;;
15814;SDS011;8008;50.024;8.172;2022-11-15T08:58:38;14.75;;;8.55;;
15814;SDS011;8008;50.024;8.172;2022-11-15T09:01:25;28.05;;;14.55;;
15814;SDS011;8008;50.024;8.172;2022-11-15T09:04:13;13.43;;;10.05;;
15814;SDS011;8008;50.024;8.172;2022-11-15T09:06:59;16.10;;;8.48;;
15814;SDS011;8008;50.024;8.172;2022-11-15T09:09:46;12.90;;;8.18;;
15814;SDS011;8008;50.024;8.172;2022-11-15T09:12:34;14.98;;;7.95;;
15814;SDS011;8008;50.024;8.172;2022-11-15T09:15:22;14.93;;;8.13;;
15814;SDS011;8008;50.024;8.172;2022-11-15T09:18:09;10.77;;;7.53;;
15814;SDS011;8008;50.024;8.172;2022-11-15T09:20:58;9.52;;;7.30;;
15814;SDS011;8008;50.024;8.172;2022-11-15T09:23:47;10.57;;;7.45;;
15814;SDS011;8008;50.024;8.172;2022-11-15T09:26:38;10.20;;;7.47;;
15814;SDS011;8008;50.024;8.172;2022-11-15T09:29:24;10.85;;;8.02;;
15814;SDS011;8008;50.024;8.172;2022-11-15T09:32:10;11.32;;;7.82;;
15814;SDS011;8008;50.024;8.172;2022-11-15T09:34:57;11.60;;;7.72;;
15814;SDS011;8008;50.024;8.172;2022-11-15T09:37:46;11.57;;;8.18;;
15814;SDS011;8008;50.024;8.172;2022-11-15T09:40:41;11.02;;;7.70;;
15814;SDS011;8008;50.024;8.172;2022-11-15T09:43:30;11.38;;;7.65;;
15814;SDS011;8008;50.024;8.172;2022-11-15T09:46:24;13.38;;;7.80;;
15814;SDS011;8008;50.024;8.172;2022-11-15T09:49:24;10.45;;;7.70;;
15814;SDS011;8008;50.024;8.172;2022-11-15T09:52:11;13.90;;;7.47;;
15814;SDS011;8008;50.024;8.172;2022-11-15T09:54:41;12.48;;;7.88;;
15814;SDS011;8008;50.024;8.172;2022-11-15T09:57:21;12.52;;;7.88;;
15814;SDS011;8008;50.024;8.172;2022-11-15T10:00:06;13.38;;;7.53;;
15814;SDS011;8008;50.024;8.172;2022-11-15T10:03:11;12.52;;;7.60;;
15814;SDS011;8008;50.024;8.172;2022-11-15T10:05:44;10.88;;;7.43;;
15814;SDS011;8008;50.024;8.172;2022-11-15T10:08:20;11.60;;;7.55;;
15814;SDS011;8008;50.024;8.172;2022-11-15T10:10:58;13.32;;;7.25;;
15814;SDS011;8008;50.024;8.172;2022-11-15T10:13:48;14.23;;;7.38;;
15814;SDS011;8008;50.024;8.172;2022-11-15T10:16:23;14.80;;;8.45;;
15814;SDS011;8008;50.024;8.172;2022-11-15T10:19:18;11.15;;;7.63;;
15814;SDS011;8008;50.024;8.172;2022-11-15T10:21:53;14.80;;;9.18;;
15814;SDS011;8008;50.024;8.172;2022-11-15T10:24:28;12.10;;;7.88;;
15814;SDS011;8008;50.024;8.172;2022-11-15T10:27:03;15.05;;;8.80;;
15814;SDS011;8008;50.024;8.172;2022-11-15T10:29:36;11.55;;;8.32;;
15814;SDS011;8008;50.024;8.172;2022-11-15T10:32:10;12.93;;;8.25;;
15814;SDS011;8008;50.024;8.172;2022-11-15T10:34:38;12.10;;;8.60;;
15814;SDS011;8008;50.024;8.172;2022-11-15T10:37:06;14.02;;;8.63;;
15814;SDS011;8008;50.024;8.172;2022-11-15T10:39:34;11.40;;;8.43;;
15814;SDS011;8008;50.024;8.172;2022-11-15T10:42:16;12.32;;;8.35;;
15814;SDS011;8008;50.024;8.172;2022-11-15T10:44:45;12.43;;;8.05;;
15814;SDS011;8008;50.024;8.172;2022-11-15T10:47:23;13.18;;;8.32;;
15814;SDS011;8008;50.024;8.172;2022-11-15T10:49:54;10.82;;;7.28;;
15814;SDS011;8008;50.024;8.172;2022-11-15T10:52:24;12.68;;;8.60;;
15814;SDS011;8008;50.024;8.172;2022-11-15T10:54:55;10.95;;;7.88;;
15814;SDS011;8008;50.024;8.172;2022-11-15T10:57:28;12.57;;;7.88;;
15814;SDS011;8008;50.024;8.172;2022-11-15T10:59:59;11.27;;;7.47;;
15814;SDS011;8008;50.024;8.172;2022-11-15T11:02:30;12.57;;;7.47;;
15814;SDS011;8008;50.024;8.172;2022-11-15T11:05:00;8.85;;;7.40;;
15814;SDS011;8008;50.024;8.172;2022-11-15T11:07:29;10.57;;;7.32;;
15814;SDS011;8008;50.024;8.172;2022-11-15T11:09:59;12.63;;;8.15;;
15814;SDS011;8008;50.024;8.172;2022-11-15T11:12:32;11.48;;;7.47;;
15814;SDS011;8008;50.024;8.172;2022-11-15T11:15:01;11.05;;;8.00;;
15814;SDS011;8008;50.024;8.172;2022-11-15T11:17:43;12.02;;;7.60;;
15814;SDS011;8008;50.024;8.172;2022-11-15T11:20:21;10.45;;;7.03;;
15814;SDS011;8008;50.024;8.172;2022-11-15T11:22:57;12.82;;;7.45;;
15814;SDS011;8008;50.024;8.172;2022-11-15T11:25:33;8.95;;;6.40;;
15814;SDS011;8008;50.024;8.172;2022-11-15T11:28:12;8.93;;;6.43;;
15814;SDS011;8008;50.024;8.172;2022-11-15T11:30:50;9.32;;;6.80;;
15814;SDS011;8008;50.024;8.172;2022-11-15T11:33:26;9.70;;;6.35;;
15814;SDS011;8008;50.024;8.172;2022-11-15T11:36:01;12.35;;;7.30;;
15814;SDS011;8008;50.024;8.172;2022-11-15T11:38:55;8.88;;;6.50;;
15814;SDS011;8008;50.024;8.172;2022-11-15T11:41:35;7.80;;;5.70;;
15814;SDS011;8008;50.024;8.172;2022-11-15T11:44:22;7.28;;;5.63;;
15814;SDS011;8008;50.024;8.172;2022-11-15T11:46:56;7.50;;;5.43;;
15814;SDS011;8008;50.024;8.172;2022-11-15T11:49:32;7.22;;;5.60;;
15814;SDS011;8008;50.024;8.172;2022-11-15T11:52:08;6.70;;;5.50;;
15814;SDS011;8008;50.024;8.172;2022-11-15T11:54:42;7.68;;;5.47;;
15814;SDS011;8008;50.024;8.172;2022-11-15T11:57:19;6.95;;;5.32;;
15814;SDS011;8008;50.024;8.172;2022-11-15T11:59:58;8.27;;;6.00;;
15814;SDS011;8008;50.024;8.172;2022-11-15T12:02:38;7.35;;;5.93;;
15814;SDS011;8008;50.024;8.172;2022-11-15T12:05:10;9.82;;;7.22;;
15814;SDS011;8008;50.024;8.172;2022-11-15T12:07:43;8.80;;;5.68;;
15814;SDS011;8008;50.024;8.172;2022-11-15T12:10:19;8.60;;;5.40;;
15814;SDS011;8008;50.024;8.172;2022-11-15T12:12:53;9.85;;;5.75;;
15814;SDS011;8008;50.024;8.172;2022-11-15T12:15:27;7.10;;;5.45;;
15814;SDS011;8008;50.024;8.172;2022-11-15T12:17:59;7.28;;;5.47;;
15814;SDS011;8008;50.024;8.172;2022-11-15T12:20:29;7.75;;;5.50;;
15814;SDS011;8008;50.024;8.172;2022-11-15T12:23:03;7.25;;;5.65;;
15814;SDS011;8008;50.024;8.172;2022-11-15T12:25:36;8.93;;;4.88;;
15814;SDS011;8008;50.024;8.172;2022-11-15T12:28:13;8.90;;;5.60;;
15814;SDS011;8008;50.024;8.172;2022-11-15T12:30:47;9.02;;;5.40;;
15814;SDS011;8008;50.024;8.172;2022-11-15T12:33:29;7.70;;;5.28;;
15814;SDS011;8008;50.024;8.172;2022-11-15T12:36:00;8.05;;;5.10;;
15814;SDS011;8008;50.024;8.172;2022-11-15T12:41:21;7.88;;;5.30;;
15814;SDS011;8008;50.024;8.172;2022-11-15T12:43:52;6.80;;;4.93;;
15814;SDS011;8008;50.024;8.172;2022-11-15T12:46:22;6.75;;;4.95;;
15814;SDS011;8008;50.024;8.172;2022-11-15T12:52:10;6.95;;;4.70;;
15814;SDS011;8008;50.024;8.172;2022-11-15T12:54:52;7.00;;;4.82;;
15814;SDS011;8008;50.024;8.172;2022-11-15T12:57:28;5.97;;;4.70;;
15814;SDS011;8008;50.024;8.172;2022-11-15T13:03:18;7.97;;;4.90;;
15814;SDS011;8008;50.024;8.172;2022-11-15T13:09:03;6.95;;;4.93;;
15814;SDS011;8008;50.024;8.172;2022-11-15T13:11:53;5.80;;;4.85;;
15814;SDS011;8008;50.024;8.172;2022-11-15T13:14:42;9.25;;;4.80;;
15814;SDS011;8008;50.024;8.172;2022-11-15T13:17:28;5.53;;;4.72;;
15814;SDS011;8008;50.024;8.172;2022-11-15T13:20:14;9.75;;;5.00;;
15814;SDS011;8008;50.024;8.172;2022-11-15T13:22:47;6.90;;;5.05;;
15814;SDS011;8008;50.024;8.172;2022-11-15T13:25:30;7.10;;;4.95;;
15814;SDS011;8008;50.024;8.172;2022-11-15T13:28:17;7.15;;;5.30;;
15814;SDS011;8008;50.024;8.172;2022-11-15T13:30:49;8.60;;;4.90;;
15814;SDS011;8008;50.024;8.172;2022-11-15T13:33:19;7.85;;;5.10;;
15814;SDS011;8008;50.024;8.172;2022-11-15T13:35:51;6.15;;;4.50;;
15814;SDS011;8008;50.024;8.172;2022-11-15T13:38:25;7.65;;;4.70;;
15814;SDS011;8008;50.024;8.172;2022-11-15T13:40:56;7.40;;;5.32;;
15814;SDS011;8008;50.024;8.172;2022-11-15T13:43:27;6.85;;;5.05;;
15814;SDS011;8008;50.024;8.172;2022-11-15T13:46:05;6.32;;;5.03;;
15814;SDS011;8008;50.024;8.172;2022-11-15T13:48:35;7.60;;;5.07;;
15814;SDS011;8008;50.024;8.172;2022-11-15T13:51:05;6.78;;;4.93;;
15814;SDS011;8008;50.024;8.172;2022-11-15T13:53:42;13.48;;;5.80;;
15814;SDS011;8008;50.024;8.172;2022-11-15T13:56:14;6.40;;;4.65;;
15814;SDS011;8008;50.024;8.172;2022-11-15T13:58:43;6.53;;;4.60;;
15814;SDS011;8008;50.024;8.172;2022-11-15T14:01:14;5.88;;;4.57;;
15814;SDS011;8008;50.024;8.172;2022-11-15T14:03:47;7.43;;;4.30;;
15814;SDS011;8008;50.024;8.172;2022-11-15T14:06:20;5.68;;;4.28;;
15814;SDS011;8008;50.024;8.172;2022-11-15T14:09:04;5.97;;;4.25;;
15814;SDS011;8008;50.024;8.172;2022-11-15T14:11:57;7.97;;;4.53;;
15814;SDS011;8008;50.024;8.172;2022-11-15T14:14:26;6.00;;;4.35;;
15814;SDS011;8008;50.024;8.172;2022-11-15T14:16:55;5.53;;;4.28;;
15814;SDS011;8008;50.024;8.172;2022-11-15T14:19:38;5.68;;;4.15;;
15814;SDS011;8008;50.024;8.172;2022-11-15T14:22:08;7.05;;;4.00;;
15814;SDS011;8008;50.024;8.172;2022-11-15T14:24:47;6.10;;;4.13;;
15814;SDS011;8008;50.024;8.172;2022-11-15T14:27:30;6.95;;;4.30;;
15814;SDS011;8008;50.024;8.172;2022-11-15T14:29:59;5.00;;;4.18;;
15814;SDS011;8008;50.024;8.172;2022-11-15T14:32:27;5.55;;;4.13;;
15814;SDS011;8008;50.024;8.172;2022-11-15T14:34:56;6.75;;;4.40;;
15814;SDS011;8008;50.024;8.172;2022-11-15T14:37:28;6.22;;;4.60;;
15814;SDS011;8008;50.024;8.172;2022-11-15T14:39:59;5.55;;;4.20;;
15814;SDS011;8008;50.024;8.172;2022-11-15T14:42:28;5.47;;;4.30;;
15814;SDS011;8008;50.024;8.172;2022-11-15T14:44:56;6.93;;;4.50;;
15814;SDS011;8008;50.024;8.172;2022-11-15T14:47:24;10.07;;;4.32;;
15814;SDS011;8008;50.024;8.172;2022-11-15T14:49:52;5.25;;;4.20;;
15814;SDS011;8008;50.024;8.172;2022-11-15T14:52:24;6.15;;;4.03;;
15814;SDS011;8008;50.024;8.172;2022-11-15T14:54:58;5.82;;;4.35;;
15814;SDS011;8008;50.024;8.172;2022-11-15T14:57:27;6.95;;;3.95;;
15814;SDS011;8008;50.024;8.172;2022-11-15T14:59:55;5.68;;;4.05;;
15814;SDS011;8008;50.024;8.172;2022-11-15T15:02:37;8.65;;;4.10;;
15814;SDS011;8008;50.024;8.172;2022-11-15T15:05:11;6.53;;;3.92;;
15814;SDS011;8008;50.024;8.172;2022-11-15T15:07:43;5.13;;;3.83;;
15814;SDS011;8008;50.024;8.172;2022-11-15T15:10:11;5.28;;;3.88;;
15814;SDS011;8008;50.024;8.172;2022-11-15T15:13:00;6.25;;;4.00;;
15814;SDS011;8008;50.024;8.172;2022-11-15T15:15:32;7.07;;;4.07;;
15814;SDS011;8008;50.024;8.172;2022-11-15T15:18:01;10.32;;;4.07;;
15814;SDS011;8008;50.024;8.172;2022-11-15T15:20:30;8.40;;;4.30;;
15814;SDS011;8008;50.024;8.172;2022-11-15T15:23:00;6.95;;;4.05;;
15814;SDS011;8008;50.024;8.172;2022-11-15T15:25:29;6.50;;;4.30;;
15814;SDS011;8008;50.024;8.172;2022-11-15T15:27:59;5.93;;;4.03;;
15814;SDS011;8008;50.024;8.172;2022-11-15T15:30:27;6.55;;;4.15;;
15814;SDS011;8008;50.024;8.172;2022-11-15T15:32:57;6.57;;;4.93;;
15814;SDS011;8008;50.024;8.172;2022-11-15T15:35:26;8.68;;;4.95;;
15814;SDS011;8008;50.024;8.172;2022-11-15T15:37:56;11.43;;;5.13;;
15814;SDS011;8008;50.024;8.172;2022-11-15T15:40:27;8.38;;;4.90;;
15814;SDS011;8008;50.024;8.172;2022-11-15T15:42:56;8.20;;;5.10;;
15814;SDS011;8008;50.024;8.172;2022-11-15T15:45:25;9.85;;;4.90;;
15814;SDS011;8008;50.024;8.172;2022-11-15T15:47:54;9.13;;;5.35;;
15814;SDS011;8008;50.024;8.172;2022-11-15T15:50:23;9.80;;;5.93;;
15814;SDS011;8008;50.024;8.172;2022-11-15T15:52:53;8.20;;;5.30;;
15814;SDS011;8008;50.024;8.172;2022-11-15T15:55:24;8.38;;;4.90;;
15814;SDS011;8008;50.024;8.172;2022-11-15T15:57:54;8.23;;;5.50;;
15814;SDS011;8008;50.024;8.172;2022-11-15T16:00:23;12.45;;;5.55;;
15814;SDS011;8008;50.024;8.172;2022-11-15T16:02:52;9.60;;;5.90;;
15814;SDS011;8008;50.024;8.172;2022-11-15T16:05:21;9.48;;;5.03;;
15814;SDS011;8008;50.024;8.172;2022-11-15T16:07:49;8.32;;;5.15;;
15814;SDS011;8008;50.024;8.172;2022-11-15T16:10:21;6.95;;;4.75;;
15814;SDS011;8008;50.024;8.172;2022-11-15T16:12:52;6.57;;;4.72;;
15814;SDS011;8008;50.024;8.172;2022-11-15T16:15:22;9.35;;;5.20;;
15814;SDS011;8008;50.024;8.172;2022-11-15T16:17:52;7.00;;;4.78;;
15814;SDS011;8008;50.024;8.172;2022-11-15T16:20:23;10.60;;;4.25;;
15814;SDS011;8008;50.024;8.172;2022-11-15T16:22:59;7.38;;;4.65;;
15814;SDS011;8008;50.024;8.172;2022-11-15T16:25:35;9.68;;;4.80;;
15814;SDS011;8008;50.024;8.172;2022-11-15T16:28:11;8.13;;;4.40;;
15814;SDS011;8008;50.024;8.172;2022-11-15T16:30:44;9.27;;;4.72;;
15814;SDS011;8008;50.024;8.172;2022-11-15T16:33:17;8.60;;;5.20;;
15814;SDS011;8008;50.024;8.172;2022-11-15T16:35:46;14.90;;;5.20;;
15814;SDS011;8008;50.024;8.172;2022-11-15T16:38:14;10.90;;;5.20;;
15814;SDS011;8008;50.024;8.172;2022-11-15T16:40:43;7.82;;;4.72;;
15814;SDS011;8008;50.024;8.172;2022-11-15T16:43:12;7.95;;;5.30;;
15814;SDS011;8008;50.024;8.172;2022-11-15T16:45:45;8.82;;;5.72;;
15814;SDS011;8008;50.024;8.172;2022-11-15T16:48:18;9.10;;;5.38;;
15814;SDS011;8008;50.024;8.172;2022-11-15T16:50:50;9.38;;;5.78;;
15814;SDS011;8008;50.024;8.172;2022-11-15T16:53:22;7.30;;;5.78;;
15814;SDS011;8008;50.024;8.172;2022-11-15T16:55:50;9.30;;;6.10;;
15814;SDS011;8008;50.024;8.172;2022-11-15T16:58:20;10.75;;;5.95;;
15814;SDS011;8008;50.024;8.172;2022-11-15T17:00:49;7.90;;;5.63;;
15814;SDS011;8008;50.024;8.172;2022-11-15T17:03:22;8.95;;;5.95;;
15814;SDS011;8008;50.024;8.172;2022-11-15T17:05:50;6.72;;;5.35;;
15814;SDS011;8008;50.024;8.172;2022-11-15T17:08:18;9.73;;;5.57;;
15814;SDS011;8008;50.024;8.172;2022-11-15T17:10:48;6.45;;;4.70;;
15814;SDS011;8008;50.024;8.172;2022-11-15T17:13:16;8.48;;;5.03;;
15814;SDS011;8008;50.024;8.172;2022-11-15T17:15:45;7.22;;;5.07;;
15814;SDS011;8008;50.024;8.172;2022-11-15T17:18:13;7.28;;;4.97;;
15814;SDS011;8008;50.024;8.172;2022-11-15T17:20:41;7.75;;;4.40;;
15814;SDS011;8008;50.024;8.172;2022-11-15T17:23:11;9.00;;;4.85;;
15814;SDS011;8008;50.024;8.172;2022-11-15T17:25:40;6.68;;;4.53;;
15814;SDS011;8008;50.024;8.172;2022-11-15T17:28:09;6.63;;;4.60;;
15814;SDS011;8008;50.024;8.172;2022-11-15T17:30:39;8.20;;;4.15;;
15814;SDS011;8008;50.024;8.172;2022-11-15T17:33:09;9.15;;;4.90;;
15814;SDS011;8008;50.024;8.172;2022-11-15T17:35:43;10.68;;;4.90;;
15814;SDS011;8008;50.024;8.172;2022-11-15T17:38:11;9.10;;;4.50;;
15814;SDS011;8008;50.024;8.172;2022-11-15T17:40:39;8.63;;;4.68;;
15814;SDS011;8008;50.024;8.172;2022-11-15T17:43:07;10.43;;;5.45;;
15814;SDS011;8008;50.024;8.172;2022-11-15T17:45:38;10.57;;;5.93;;
15814;SDS011;8008;50.024;8.172;2022-11-15T17:48:06;10.18;;;5.72;;
15814;SDS011;8008;50.024;8.172;2022-11-15T17:50:36;10.32;;;5.70;;
15814;SDS011;8008;50.024;8.172;2022-11-15T17:53:04;8.98;;;6.28;;
15814;SDS011;8008;50.024;8.172;2022-11-15T17:55:31;14.50;;;6.70;;
15814;SDS011;8008;50.024;8.172;2022-11-15T17:57:59;10.40;;;6.43;;
15814;SDS011;8008;50.024;8.172;2022-11-15T18:00:27;12.00;;;6.78;;
15814;SDS011;8008;50.024;8.172;2022-11-15T18:02:56;12.82;;;7.85;;
15814;SDS011;8008;50.024;8.172;2022-11-15T18:05:23;11.82;;;6.85;;
15814;SDS011;8008;50.024;8.172;2022-11-15T18:07:53;12.13;;;7.55;;
15814;SDS011;8008;50.024;8.172;2022-11-15T18:10:21;12.40;;;7.97;;
15814;SDS011;8008;50.024;8.172;2022-11-15T18:12:48;15.75;;;9.68;;
15814;SDS011;8008;50.024;8.172;2022-11-15T18:15:16;10.48;;;7.63;;
15814;SDS011;8008;50.024;8.172;2022-11-15T18:17:46;11.88;;;7.30;;
15814;SDS011;8008;50.024;8.172;2022-11-15T18:20:14;10.05;;;7.45;;
15814;SDS011;8008;50.024;8.172;2022-11-15T18:22:43;14.50;;;8.10;;
15814;SDS011;8008;50.024;8.172;2022-11-15T18:25:12;15.88;;;8.75;;
15814;SDS011;8008;50.024;8.172;2022-11-15T18:27:44;15.88;;;9.00;;
15814;SDS011;8008;50.024;8.172;2022-11-15T18:30:13;10.15;;;6.05;;
15814;SDS011;8008;50.024;8.172;2022-11-15T18:32:41;8.15;;;5.90;;
15814;SDS011;8008;50.024;8.172;2022-11-15T18:35:10;10.88;;;5.20;;
15814;SDS011;8008;50.024;8.172;2022-11-15T18:37:38;6.05;;;4.70;;
15814;SDS011;8008;50.024;8.172;2022-11-15T18:40:06;6.00;;;4.38;;
15814;SDS011;8008;50.024;8.172;2022-11-15T18:42:36;7.30;;;4.45;;
15814;SDS011;8008;50.024;8.172;2022-11-15T18:45:05;9.80;;;7.22;;
15814;SDS011;8008;50.024;8.172;2022-11-15T18:47:35;8.23;;;5.88;;
15814;SDS011;8008;50.024;8.172;2022-11-15T18:50:03;14.18;;;8.57;;
15814;SDS011;8008;50.024;8.172;2022-11-15T18:52:31;14.13;;;9.68;;
15814;SDS011;8008;50.024;8.172;2022-11-15T18:54:59;13.43;;;8.55;;
15814;SDS011;8008;50.024;8.172;2022-11-15T18:57:27;14.23;;;9.70;;
15814;SDS011;8008;50.024;8.172;2022-11-15T18:59:56;12.73;;;9.35;;
15814;SDS011;8008;50.024;8.172;2022-11-15T19:02:25;16.88;;;10.35;;
15814;SDS011;8008;50.024;8.172;2022-11-15T19:04:54;17.23;;;10.63;;
15814;SDS011;8008;50.024;8.172;2022-11-15T19:07:25;14.68;;;10.45;;
15814;SDS011;8008;50.024;8.172;2022-11-15T19:09:53;14.57;;;10.15;;
15814;SDS011;8008;50.024;8.172;2022-11-15T19:12:22;12.18;;;9.15;;
15814;SDS011;8008;50.024;8.172;2022-11-15T19:14:51;13.45;;;9.15;;
15814;SDS011;8008;50.024;8.172;2022-11-15T19:17:20;13.15;;;8.70;;
15814;SDS011;8008;50.024;8.172;2022-11-15T19:19:48;13.25;;;8.65;;
15814;SDS011;8008;50.024;8.172;2022-11-15T19:22:17;11.85;;;8.25;;
15814;SDS011;8008;50.024;8.172;2022-11-15T19:24:45;12.52;;;7.75;;
15814;SDS011;8008;50.024;8.172;2022-11-15T19:27:13;11.13;;;8.38;;
15814;SDS011;8008;50.024;8.172;2022-11-15T19:29:42;12.52;;;7.80;;
15814;SDS011;8008;50.024;8.172;2022-11-15T19:32:10;14.82;;;9.60;;
15814;SDS011;8008;50.024;8.172;2022-11-15T19:34:39;21.35;;;13.35;;
15814;SDS011;8008;50.024;8.172;2022-11-15T19:37:08;24.20;;;14.63;;
15814;SDS011;8008;50.024;8.172;2022-11-15T19:39:35;23.85;;;14.65;;
15814;SDS011;8008;50.024;8.172;2022-11-15T19:42:06;26.80;;;14.90;;
15814;SDS011;8008;50.024;8.172;2022-11-15T19:44:34;27.27;;;14.98;;
15814;SDS011;8008;50.024;8.172;2022-11-15T19:47:02;23.15;;;14.43;;
15814;SDS011;8008;50.024;8.172;2022-11-15T19:49:34;24.48;;;15.55;;
15814;SDS011;8008;50.024;8.172;2022-11-15T19:52:03;32.60;;;20.15;;
15814;SDS011;8008;50.024;8.172;2022-11-15T19:54:31;27.77;;;18.27;;
15814;SDS011;8008;50.024;8.172;2022-11-15T19:57:00;28.42;;;19.83;;
15814;SDS011;8008;50.024;8.172;2022-11-15T19:59:28;27.77;;;18.83;;
15814;SDS011;8008;50.024;8.172;2022-11-15T20:01:56;22.13;;;16.08;;
15814;SDS011;8008;50.024;8.172;2022-11-15T20:04:26;21.35;;;13.77;;
15814;SDS011;8008;50.024;8.172;2022-11-15T20:06:54;21.10;;;13.82;;
15814;SDS011;8008;50.024;8.172;2022-11-15T20:09:24;19.50;;;11.93;;
15814;SDS011;8008;50.024;8.172;2022-11-15T20:11:52;18.08;;;11.75;;